createdAt,value
2018-01-20T00:00:22.654Z,1007.71
2018-01-20T00:01:44.268Z,1007.76
2018-01-20T00:03:06.125Z,1007.73
2018-01-20T00:04:27.744Z,1007.79
2018-01-20T00:05:49.595Z,1007.74
2018-01-20T00:07:11.759Z,1007.72
2018-01-20T00:08:33.655Z,1007.76
2018-01-20T00:09:55.668Z,1007.75
2018-01-20T00:11:17.783Z,1007.73
2018-01-20T00:12:39.751Z,1007.7
2018-01-20T00:14:01.334Z,1007.75
2018-01-20T00:15:22.932Z,1007.77
2018-01-20T00:16:44.272Z,1007.8
2018-01-20T00:18:06.257Z,1007.85
2018-01-20T00:19:27.850Z,1007.84
2018-01-20T00:20:49.765Z,1007.82
2018-01-20T00:22:11.537Z,1007.88
2018-01-20T00:23:33.154Z,1007.86
2018-01-20T00:24:55.287Z,1007.85
2018-01-20T00:26:17.207Z,1007.86
2018-01-20T00:27:39.344Z,1007.89
2018-01-20T00:29:01.267Z,1007.86
2018-01-20T00:30:23.274Z,1007.86
2018-01-20T00:31:44.664Z,1007.81
2018-01-20T00:33:06.514Z,1007.84
2018-01-20T00:34:28.323Z,1007.79
2018-01-20T00:35:49.984Z,1007.81
2018-01-20T00:37:11.842Z,1007.8
2018-01-20T00:38:33.713Z,1007.82
2018-01-20T00:39:55.323Z,1007.82
2018-01-20T00:41:17.447Z,1007.78
2018-01-20T00:42:39.122Z,1007.75
2018-01-20T00:44:01.091Z,1007.75
2018-01-20T00:45:22.693Z,1007.77
2018-01-20T00:46:44.557Z,1007.75
2018-01-20T00:48:06.172Z,1007.77
2018-01-20T00:49:28.053Z,1007.74
2018-01-20T00:50:49.722Z,1007.76
2018-01-20T00:52:11.692Z,1007.72
2018-01-20T00:53:34.005Z,1007.72
2018-01-20T00:54:55.923Z,1007.68
2018-01-20T00:56:17.775Z,1007.66
2018-01-20T00:57:39.906Z,1007.69
2018-01-20T00:59:02.088Z,1007.7
2018-01-20T01:00:23.842Z,1007.72
2018-01-20T01:01:45.560Z,1007.69
2018-01-20T01:03:07.469Z,1007.63
2018-01-20T01:04:29.646Z,1007.65
2018-01-20T01:05:51.297Z,1007.65
2018-01-20T01:07:12.911Z,1007.59
2018-01-20T01:08:34.800Z,1007.6
2018-01-20T01:09:56.906Z,1007.54
2018-01-20T01:11:18.770Z,1007.59
2018-01-20T01:12:40.653Z,1007.57
2018-01-20T01:14:01.802Z,1007.57
2018-01-20T01:15:23.414Z,1007.56
2018-01-20T01:16:45.451Z,1007.52
2018-01-20T01:18:07.078Z,1007.54
2018-01-20T01:19:29.201Z,1007.58
2018-01-20T01:20:51.071Z,1007.57
2018-01-20T01:22:12.664Z,1007.6
2018-01-20T01:23:34.526Z,1007.62
2018-01-20T01:24:56.646Z,1007.61
2018-01-20T01:26:18.821Z,1007.63
2018-01-20T01:27:40.717Z,1007.65
2018-01-20T01:29:02.876Z,1007.61
2018-01-20T01:30:25.039Z,1007.61
2018-01-20T01:31:46.399Z,1007.61
2018-01-20T01:33:08.275Z,1007.65
2018-01-20T01:34:30.375Z,1007.71
2018-01-20T01:35:52.202Z,1007.71
2018-01-20T01:37:14.124Z,1007.73
2018-01-20T01:38:35.787Z,1007.71
2018-01-20T01:39:57.695Z,1007.69
2018-01-20T01:41:19.044Z,1007.69
2018-01-20T01:42:41.264Z,1007.68
2018-01-20T01:44:03.133Z,1007.72
2018-01-20T01:45:24.465Z,1007.7
2018-01-20T01:46:46.669Z,1007.72
2018-01-20T01:48:08.355Z,1007.73
2018-01-20T01:49:30.494Z,1007.72
2018-01-20T01:50:52.368Z,1007.76
2018-01-20T01:52:13.969Z,1007.74
2018-01-20T01:53:35.577Z,1007.72
2018-01-20T01:54:57.610Z,1007.7
2018-01-20T01:56:19.426Z,1007.73
2018-01-20T01:57:41.308Z,1007.73
2018-01-20T01:59:03.445Z,1007.72
2018-01-20T02:00:25.552Z,1007.68
2018-01-20T02:01:47.485Z,1007.67
2018-01-20T02:03:09.595Z,1007.65
2018-01-20T02:04:30.935Z,1007.62
2018-01-20T02:05:53.077Z,1007.6
2018-01-20T02:07:15.045Z,1007.58
2018-01-20T02:08:36.945Z,1007.53
2018-01-20T02:09:59.050Z,1007.56
2018-01-20T02:11:21.186Z,1007.53
2018-01-20T02:12:43.302Z,1007.53
2018-01-20T02:14:05.337Z,1007.53
2018-01-20T02:15:27.288Z,1007.57
2018-01-20T02:16:49.654Z,1007.51
2018-01-20T02:18:11.692Z,1007.5
2018-01-20T02:19:33.810Z,1007.51
2018-01-20T02:20:55.650Z,1007.56
2018-01-20T02:22:18.017Z,1007.52
2018-01-20T02:23:39.746Z,1007.51
2018-01-20T02:25:01.125Z,1007.52
2018-01-20T02:26:23.286Z,1007.52
2018-01-20T02:27:45.004Z,1007.46
2018-01-20T02:29:07.136Z,1007.49
2018-01-20T02:30:28.856Z,1007.48
2018-01-20T02:31:51.092Z,1007.47
2018-01-20T02:33:12.459Z,1007.46
2018-01-20T02:34:34.645Z,1007.45
2018-01-20T02:35:56.275Z,1007.43
2018-01-20T02:37:17.877Z,1007.43
2018-01-20T02:38:39.735Z,1007.37
2018-01-20T02:40:01.856Z,1007.4
2018-01-20T02:41:23.526Z,1007.41
2018-01-20T02:42:45.384Z,1007.3
2018-01-20T02:44:07.304Z,1007.33
2018-01-20T02:45:29.197Z,1007.36
2018-01-20T02:46:51.352Z,1007.31
2018-01-20T02:48:13.496Z,1007.33
2018-01-20T02:49:35.894Z,1007.32
2018-01-20T02:50:58.015Z,1007.3
2018-01-20T02:52:19.616Z,1007.29
2018-01-20T02:53:40.954Z,1007.29
2018-01-20T02:55:02.537Z,1007.24
2018-01-20T02:56:24.524Z,1007.25
2018-01-20T02:57:46.669Z,1007.27
2018-01-20T02:59:08.284Z,1007.2
2018-01-20T03:00:29.954Z,1007.16
2018-01-20T03:01:51.804Z,1007.17
2018-01-20T03:03:13.384Z,1007.11
2018-01-20T03:04:35.005Z,1007.12
2018-01-20T03:05:57.123Z,1007.11
2018-01-20T03:07:18.796Z,1007.1
2018-01-20T03:08:40.774Z,1007.12
2018-01-20T03:10:02.424Z,1007.13
2018-01-20T03:11:24.303Z,1007.17
2018-01-20T03:12:46.489Z,1007.18
2018-01-20T03:14:07.835Z,1007.18
2018-01-20T03:15:30.089Z,1007.17
2018-01-20T03:16:51.960Z,1007.18
2018-01-20T03:18:13.793Z,1007.15
2018-01-20T03:19:35.241Z,1007.15
2018-01-20T03:20:57.106Z,1007.1
2018-01-20T03:22:18.693Z,1007.16
2018-01-20T03:23:40.019Z,1007.12
2018-01-20T03:25:01.964Z,1007.09
2018-01-20T03:26:23.666Z,1007.04
2018-01-20T03:27:45.770Z,1007.08
2018-01-20T03:29:07.353Z,1007.05
2018-01-20T03:30:29.326Z,1007.06
2018-01-20T03:31:51.596Z,1007.07
2018-01-20T03:33:13.743Z,1007.09
2018-01-20T03:34:35.638Z,1007.05
2018-01-20T03:35:57.676Z,1007.06
2018-01-20T03:37:19.987Z,1007.02
2018-01-20T03:38:41.935Z,1007.02
2018-01-20T03:40:03.634Z,1006.97
2018-01-20T03:41:25.616Z,1006.98
2018-01-20T03:42:47.303Z,1006.98
2018-01-20T03:44:08.891Z,1006.93
2018-01-20T03:45:30.494Z,1006.94
2018-01-20T03:46:52.606Z,1006.91
2018-01-20T03:48:14.274Z,1006.93
2018-01-20T03:49:36.005Z,1006.89
2018-01-20T03:50:57.343Z,1006.89
2018-01-20T03:52:18.685Z,1006.86
2018-01-20T03:53:40.287Z,1006.87
2018-01-20T03:55:01.615Z,1006.86
2018-01-20T03:56:23.208Z,1006.85
2018-01-20T03:57:44.572Z,1006.85
2018-01-20T03:59:05.915Z,1006.84
2018-01-20T04:00:27.784Z,1006.85
2018-01-20T04:01:50.070Z,1006.82
2018-01-20T04:03:11.744Z,1006.85
2018-01-20T04:04:33.155Z,1006.89
2018-01-20T04:05:54.784Z,1006.88
2018-01-20T04:07:16.923Z,1006.89
2018-01-20T04:08:38.641Z,1006.87
2018-01-20T04:10:00.563Z,1006.88
2018-01-20T04:11:22.158Z,1006.86
2018-01-20T04:12:44.323Z,1006.84
2018-01-20T04:14:05.937Z,1006.88
2018-01-20T04:15:27.002Z,1006.84
2018-01-20T04:16:48.602Z,1006.92
2018-01-20T04:18:10.453Z,1006.88
2018-01-20T04:19:32.043Z,1006.82
2018-01-20T04:20:53.642Z,1006.85
2018-01-20T04:22:15.785Z,1006.83
2018-01-20T04:23:37.653Z,1006.81
2018-01-20T04:24:59.283Z,1006.79
2018-01-20T04:26:20.893Z,1006.79
2018-01-20T04:27:43.153Z,1006.82
2018-01-20T04:29:04.758Z,1006.83
2018-01-20T04:30:26.359Z,1006.8
2018-01-20T04:31:47.703Z,1006.78
2018-01-20T04:33:09.566Z,1006.78
2018-01-20T04:34:31.668Z,1006.78
2018-01-20T04:35:53.357Z,1006.8
2018-01-20T04:37:15.313Z,1006.76
2018-01-20T04:38:37.516Z,1006.76
2018-01-20T04:39:59.644Z,1006.75
2018-01-20T04:41:21.265Z,1006.73
2018-01-20T04:42:43.113Z,1006.7
2018-01-20T04:44:05.287Z,1006.71
2018-01-20T04:45:26.724Z,1006.68
2018-01-20T04:46:48.662Z,1006.69
2018-01-20T04:48:10.324Z,1006.69
2018-01-20T04:49:32.328Z,1006.64
2018-01-20T04:50:54.185Z,1006.6
2018-01-20T04:52:16.056Z,1006.65
2018-01-20T04:53:37.893Z,1006.66
2018-01-20T04:54:59.724Z,1006.64
2018-01-20T04:56:21.970Z,1006.71
2018-01-20T04:57:43.665Z,1006.63
2018-01-20T04:59:05.754Z,1006.62
2018-01-20T05:00:27.594Z,1006.59
2018-01-20T05:01:48.943Z,1006.56
2018-01-20T05:03:10.809Z,1006.58
2018-01-20T05:04:32.400Z,1006.54
2018-01-20T05:05:54.002Z,1006.57
2018-01-20T05:07:15.339Z,1006.55
2018-01-20T05:08:37.484Z,1006.52
2018-01-20T05:09:59.633Z,1006.55
2018-01-20T05:11:21.937Z,1006.57
2018-01-20T05:12:43.014Z,1006.52
2018-01-20T05:14:04.954Z,1006.58
2018-01-20T05:15:26.564Z,1006.6
2018-01-20T05:16:48.152Z,1006.55
2018-01-20T05:18:09.809Z,1006.63
2018-01-20T05:19:31.913Z,1006.61
2018-01-20T05:20:53.249Z,1006.6
2018-01-20T05:22:15.574Z,1006.63
2018-01-20T05:23:37.158Z,1006.56
2018-01-20T05:24:59.274Z,1006.6
2018-01-20T05:26:21.133Z,1006.51
2018-01-20T05:27:42.730Z,1006.51
2018-01-20T05:29:04.934Z,1006.54
2018-01-20T05:30:26.542Z,1006.51
2018-01-20T05:31:48.184Z,1006.48
2018-01-20T05:33:10.056Z,1006.46
2018-01-20T05:34:32.172Z,1006.43
2018-01-20T05:35:54.301Z,1006.48
2018-01-20T05:37:15.900Z,1006.55
2018-01-20T05:38:37.841Z,1006.52
2018-01-20T05:39:59.494Z,1006.52
2018-01-20T05:41:21.621Z,1006.56
2018-01-20T05:42:43.187Z,1006.54
2018-01-20T05:44:04.904Z,1006.53
2018-01-20T05:45:26.568Z,1006.46
2018-01-20T05:46:47.953Z,1006.55
2018-01-20T05:48:09.944Z,1006.52
2018-01-20T05:49:32.063Z,1006.49
2018-01-20T05:50:53.992Z,1006.42
2018-01-20T05:52:15.063Z,1006.48
2018-01-20T05:53:36.902Z,1006.47
2018-01-20T05:54:58.499Z,1006.45
2018-01-20T05:56:20.362Z,1006.5
2018-01-20T05:57:42.473Z,1006.51
2018-01-20T05:59:04.314Z,1006.47
2018-01-20T06:00:26.295Z,1006.48
2018-01-20T06:01:48.530Z,1006.48
2018-01-20T06:03:10.746Z,1006.45
2018-01-20T06:04:32.901Z,1006.46
2018-01-20T06:05:55.113Z,1006.5
2018-01-20T06:07:16.974Z,1006.52
2018-01-20T06:08:39.203Z,1006.51
2018-01-20T06:10:01.124Z,1006.48
2018-01-20T06:11:23.403Z,1006.54
2018-01-20T06:12:44.993Z,1006.53
2018-01-20T06:14:06.866Z,1006.47
2018-01-20T06:15:28.723Z,1006.5
2018-01-20T06:16:50.962Z,1006.45
2018-01-20T06:18:12.305Z,1006.43
2018-01-20T06:19:34.514Z,1006.44
2018-01-20T06:20:56.366Z,1006.44
2018-01-20T06:22:17.972Z,1006.41
2018-01-20T06:23:40.143Z,1006.42
2018-01-20T06:25:02.004Z,1006.43
2018-01-20T06:26:23.614Z,1006.44
2018-01-20T06:27:45.765Z,1006.47
2018-01-20T06:29:07.623Z,1006.38
2018-01-20T06:30:29.474Z,1006.39
2018-01-20T06:31:51.350Z,1006.37
2018-01-20T06:33:13.463Z,1006.38
2018-01-20T06:34:35.674Z,1006.37
2018-01-20T06:35:57.512Z,1006.36
2018-01-20T06:37:18.869Z,1006.35
2018-01-20T06:38:40.652Z,1006.32
2018-01-20T06:40:01.989Z,1006.28
2018-01-20T06:41:23.850Z,1006.34
2018-01-20T06:42:46.004Z,1006.33
2018-01-20T06:44:07.867Z,1006.3
2018-01-20T06:45:29.312Z,1006.3
2018-01-20T06:46:50.921Z,1006.34
2018-01-20T06:48:12.534Z,1006.29
2018-01-20T06:49:33.633Z,1006.25
2018-01-20T06:50:55.524Z,1006.26
2018-01-20T06:52:17.161Z,1006.33
2018-01-20T06:53:38.998Z,1006.32
2018-01-20T06:55:00.962Z,1006.32
2018-01-20T06:56:22.045Z,1006.31
2018-01-20T06:57:44.153Z,1006.35
2018-01-20T06:59:06.031Z,1006.31
2018-01-20T07:00:27.886Z,1006.31
2018-01-20T07:01:50.064Z,1006.3
2018-01-20T07:03:12.160Z,1006.31
2018-01-20T07:04:33.746Z,1006.32
2018-01-20T07:05:55.855Z,1006.31
2018-01-20T07:07:17.732Z,1006.31
2018-01-20T07:08:39.339Z,1006.35
2018-01-20T07:10:01.210Z,1006.36
2018-01-20T07:11:23.314Z,1006.35
2018-01-20T07:12:45.171Z,1006.32
2018-01-20T07:14:06.873Z,1006.36
2018-01-20T07:15:28.754Z,1006.34
2018-01-20T07:16:50.612Z,1006.32
2018-01-20T07:18:12.483Z,1006.31
2018-01-20T07:19:34.673Z,1006.32
2018-01-20T07:20:56.511Z,1006.26
2018-01-20T07:22:18.384Z,1006.27
2018-01-20T07:23:40.281Z,1006.27
2018-01-20T07:25:02.207Z,1006.25
2018-01-20T07:26:23.568Z,1006.28
2018-01-20T07:27:45.176Z,1006.27
2018-01-20T07:29:06.494Z,1006.26
2018-01-20T07:30:28.625Z,1006.29
2018-01-20T07:31:50.544Z,1006.25
2018-01-20T07:33:12.202Z,1006.27
2018-01-20T07:34:33.262Z,1006.24
2018-01-20T07:35:54.930Z,1006.25
2018-01-20T07:37:16.584Z,1006.28
2018-01-20T07:38:38.698Z,1006.27
2018-01-20T07:40:00.596Z,1006.28
2018-01-20T07:41:22.702Z,1006.31
2018-01-20T07:42:44.835Z,1006.33
2018-01-20T07:44:06.747Z,1006.34
2018-01-20T07:45:28.668Z,1006.32
2018-01-20T07:46:50.809Z,1006.32
2018-01-20T07:48:13.002Z,1006.35
2018-01-20T07:49:34.627Z,1006.32
2018-01-20T07:50:56.224Z,1006.34
2018-01-20T07:52:18.105Z,1006.39
2018-01-20T07:53:39.463Z,1006.32
2018-01-20T07:55:01.392Z,1006.37
2018-01-20T07:56:23.324Z,1006.26
2018-01-20T07:57:45.223Z,1006.28
2018-01-20T07:59:07.342Z,1006.31
2018-01-20T08:00:29.474Z,1006.3
2018-01-20T08:01:51.657Z,1006.29
2018-01-20T08:03:13.535Z,1006.31
2018-01-20T08:04:35.385Z,1006.31
2018-01-20T08:05:57.095Z,1006.33
2018-01-20T08:07:19.242Z,1006.27
2018-01-20T08:08:41.199Z,1006.33
2018-01-20T08:10:02.951Z,1006.3
2018-01-20T08:11:25.082Z,1006.33
2018-01-20T08:12:46.960Z,1006.33
2018-01-20T08:14:08.814Z,1006.3
2018-01-20T08:15:31.044Z,1006.33
2018-01-20T08:16:52.984Z,1006.31
2018-01-20T08:18:14.602Z,1006.32
2018-01-20T08:19:36.529Z,1006.33
2018-01-20T08:20:58.235Z,1006.37
2018-01-20T08:22:20.526Z,1006.37
2018-01-20T08:23:42.434Z,1006.36
2018-01-20T08:25:04.565Z,1006.39
2018-01-20T08:26:26.716Z,1006.34
2018-01-20T08:27:48.324Z,1006.38
2018-01-20T08:29:10.416Z,1006.33
2018-01-20T08:30:32.381Z,1006.32
2018-01-20T08:31:53.983Z,1006.29
2018-01-20T08:33:15.894Z,1006.27
2018-01-20T08:34:38.033Z,1006.28
2018-01-20T08:35:59.901Z,1006.27
2018-01-20T08:37:21.822Z,1006.27
2018-01-20T08:38:43.420Z,1006.27
2018-01-20T08:40:05.061Z,1006.25
2018-01-20T08:41:27.007Z,1006.29
2018-01-20T08:42:48.854Z,1006.27
2018-01-20T08:44:10.507Z,1006.27
2018-01-20T08:45:32.533Z,1006.25
2018-01-20T08:46:54.256Z,1006.24
2018-01-20T08:48:16.396Z,1006.19
2018-01-20T08:49:38.625Z,1006.19
2018-01-20T08:51:00.577Z,1006.19
2018-01-20T08:52:21.938Z,1006.17
2018-01-20T08:53:43.855Z,1006.17
2018-01-20T08:55:05.972Z,1006.22
2018-01-20T08:56:27.955Z,1006.17
2018-01-20T08:57:50.104Z,1006.22
2018-01-20T08:59:12.087Z,1006.22
2018-01-20T09:00:33.700Z,1006.19
2018-01-20T09:01:55.292Z,1006.21
2018-01-20T09:03:17.183Z,1006.21
2018-01-20T09:04:38.806Z,1006.21
2018-01-20T09:06:00.966Z,1006.18
2018-01-20T09:07:22.370Z,1006.21
2018-01-20T09:08:44.248Z,1006.23
2018-01-20T09:10:06.516Z,1006.22
2018-01-20T09:11:28.630Z,1006.22
2018-01-20T09:12:50.282Z,1006.22
2018-01-20T09:14:11.881Z,1006.21
2018-01-20T09:15:33.762Z,1006.24
2018-01-20T09:16:55.677Z,1006.25
2018-01-20T09:18:17.825Z,1006.21
2018-01-20T09:19:39.985Z,1006.18
2018-01-20T09:21:01.939Z,1006.2
2018-01-20T09:22:23.876Z,1006.21
2018-01-20T09:23:45.534Z,1006.22
2018-01-20T09:25:07.939Z,1006.19
2018-01-20T09:26:30.076Z,1006.16
2018-01-20T09:27:51.683Z,1006.16
2018-01-20T09:29:13.808Z,1006.11
2018-01-20T09:30:35.959Z,1006.07
2018-01-20T09:31:57.572Z,1006.09
2018-01-20T09:33:19.438Z,1006.11
2018-01-20T09:34:41.079Z,1006.06
2018-01-20T09:36:03.204Z,1006.09
2018-01-20T09:37:25.494Z,1006.06
2018-01-20T09:38:47.361Z,1006.08
2018-01-20T09:40:09.115Z,1005.97
2018-01-20T09:41:31.267Z,1005.99
2018-01-20T09:42:52.874Z,1005.99
2018-01-20T09:44:14.483Z,1006.04
2018-01-20T09:45:35.832Z,1006.16
2018-01-20T09:46:57.742Z,1006.1
2018-01-20T09:48:19.295Z,1006.08
2018-01-20T09:49:41.302Z,1006.12
2018-01-20T09:51:03.728Z,1006.11
2018-01-20T09:52:25.630Z,1006.07
2018-01-20T09:53:47.782Z,1006.09
2018-01-20T09:55:09.654Z,1006.07
2018-01-20T09:56:31.561Z,1006.08
2018-01-20T09:57:53.154Z,1006.09
2018-01-20T09:59:15.126Z,1006.1
2018-01-20T10:00:37.024Z,1006.08
2018-01-20T10:01:58.374Z,1006.06
2018-01-20T10:03:20.053Z,1006.13
2018-01-20T10:04:41.968Z,1006.14
2018-01-20T10:06:03.825Z,1006.12
2018-01-20T10:07:25.708Z,1006.08
2018-01-20T10:08:47.421Z,1006.13
2018-01-20T10:10:09.623Z,1006.07
2018-01-20T10:11:31.294Z,1006.1
2018-01-20T10:12:52.924Z,1006.13
2018-01-20T10:14:14.522Z,1006.06
2018-01-20T10:15:36.497Z,1006.03
2018-01-20T10:16:58.363Z,1005.99
2018-01-20T10:18:19.989Z,1005.98
2018-01-20T10:19:41.887Z,1005.99
2018-01-20T10:21:04.063Z,1005.95
2018-01-20T10:22:26.045Z,1005.88
2018-01-20T10:23:48.174Z,1005.88
2018-01-20T10:25:10.125Z,1005.88
2018-01-20T10:26:32.079Z,1005.86
2018-01-20T10:27:53.974Z,1005.82
2018-01-20T10:29:15.968Z,1005.86
2018-01-20T10:30:37.843Z,1005.84
2018-01-20T10:31:59.835Z,1005.82
2018-01-20T10:33:21.997Z,1005.84
2018-01-20T10:34:44.173Z,1005.82
2018-01-20T10:36:06.375Z,1005.79
2018-01-20T10:37:28.242Z,1005.8
2018-01-20T10:38:50.664Z,1005.75
2018-01-20T10:40:12.816Z,1005.77
2018-01-20T10:41:34.473Z,1005.7
2018-01-20T10:42:56.700Z,1005.65
2018-01-20T10:44:18.825Z,1005.62
2018-01-20T10:45:40.433Z,1005.61
2018-01-20T10:47:02.309Z,1005.58
2018-01-20T10:48:23.938Z,1005.6
2018-01-20T10:49:46.067Z,1005.58
2018-01-20T10:51:07.924Z,1005.54
2018-01-20T10:52:29.827Z,1005.53
2018-01-20T10:53:52.050Z,1005.49
2018-01-20T10:55:13.956Z,1005.49
2018-01-20T10:56:35.903Z,1005.45
2018-01-20T10:57:58.145Z,1005.41
2018-01-20T10:59:20.284Z,1005.38
2018-01-20T11:00:42.437Z,1005.35
2018-01-20T11:02:03.814Z,1005.4
2018-01-20T11:03:25.829Z,1005.36
2018-01-20T11:04:47.943Z,1005.31
2018-01-20T11:06:10.088Z,1005.31
2018-01-20T11:07:32.085Z,1005.31
2018-01-20T11:08:54.278Z,1005.27
2018-01-20T11:10:16.223Z,1005.26
2018-01-20T11:11:37.385Z,1005.26
2018-01-20T11:12:59.538Z,1005.24
2018-01-20T11:14:21.815Z,1005.25
2018-01-20T11:15:43.687Z,1005.24
2018-01-20T11:17:05.560Z,1005.21
2018-01-20T11:18:27.444Z,1005.19
2018-01-20T11:19:49.116Z,1005.21
2018-01-20T11:21:10.992Z,1005.13
2018-01-20T11:22:33.206Z,1005.17
2018-01-20T11:23:55.392Z,1005.12
2018-01-20T11:25:17.013Z,1005.15
2018-01-20T11:26:38.916Z,1005.14
2018-01-20T11:28:01.142Z,1005.13
2018-01-20T11:29:22.833Z,1005.09
2018-01-20T11:30:45.112Z,1005.06
2018-01-20T11:32:07.014Z,1005.09
2018-01-20T11:33:29.175Z,1005.11
2018-01-20T11:34:51.360Z,1005.1
2018-01-20T11:36:13.524Z,1005.08
2018-01-20T11:37:35.404Z,1005.08
2018-01-20T11:38:57.524Z,1005.07
2018-01-20T11:40:19.395Z,1005.06
2018-01-20T11:41:41.595Z,1005.05
2018-01-20T11:43:03.710Z,1005.05
2018-01-20T11:44:25.888Z,1005
2018-01-20T11:45:48.011Z,1004.99
2018-01-20T11:47:10.199Z,1004.92
2018-01-20T11:48:32.201Z,1004.99
2018-01-20T11:49:54.354Z,1004.9
2018-01-20T11:51:16.560Z,1004.87
2018-01-20T11:52:38.859Z,1004.9
2018-01-20T11:54:00.878Z,1004.81
2018-01-20T11:55:23.173Z,1004.75
2018-01-20T11:56:45.058Z,1004.72
2018-01-20T11:58:06.797Z,1004.71
2018-01-20T11:59:28.685Z,1004.65
2018-01-20T12:00:50.680Z,1004.63
2018-01-20T12:02:12.584Z,1004.6
2018-01-20T12:03:34.724Z,1004.57
2018-01-20T12:04:56.934Z,1004.55
2018-01-20T12:06:18.903Z,1004.56
2018-01-20T12:07:41.054Z,1004.53
2018-01-20T12:09:03.208Z,1004.52
2018-01-20T12:10:25.097Z,1004.47
2018-01-20T12:11:46.732Z,1004.4
2018-01-20T12:13:08.365Z,1004.38
2018-01-20T12:14:30.134Z,1004.37
2018-01-20T12:15:52.022Z,1004.36
2018-01-20T12:17:14.004Z,1004.42
2018-01-20T12:18:35.933Z,1004.38
2018-01-20T12:19:58.088Z,1004.3
2018-01-20T12:21:20.246Z,1004.27
2018-01-20T12:22:42.395Z,1004.24
2018-01-20T12:24:04.532Z,1004.24
2018-01-20T12:25:26.419Z,1004.22
2018-01-20T12:26:48.555Z,1004.2
2018-01-20T12:28:10.993Z,1004.21
2018-01-20T12:29:33.143Z,1004.18
2018-01-20T12:30:55.062Z,1004.22
2018-01-20T12:32:16.972Z,1004.17
2018-01-20T12:33:38.876Z,1004.17
2018-01-20T12:35:01.052Z,1004.15
2018-01-20T12:36:22.992Z,1004.1
2018-01-20T12:37:44.903Z,1004.11
2018-01-20T12:39:07.323Z,1004.08
2018-01-20T12:40:29.198Z,1004.05
2018-01-20T12:41:51.323Z,1004.05
2018-01-20T12:43:13.290Z,1004.03
2018-01-20T12:44:35.204Z,1004.04
2018-01-20T12:45:57.148Z,1004.03
2018-01-20T12:47:19.418Z,1004
2018-01-20T12:48:41.706Z,1003.98
2018-01-20T12:50:03.782Z,1003.94
2018-01-20T12:51:25.520Z,1003.92
2018-01-20T12:52:47.431Z,1003.91
2018-01-20T12:54:09.330Z,1003.93
2018-01-20T12:55:31.561Z,1003.92
2018-01-20T12:56:53.257Z,1003.9
2018-01-20T12:58:14.920Z,1003.93
2018-01-20T12:59:37.182Z,1003.93
2018-01-20T13:00:59.100Z,1003.87
2018-01-20T13:02:21.253Z,1003.87
2018-01-20T13:03:43.536Z,1003.86
2018-01-20T13:05:05.462Z,1003.85
2018-01-20T13:06:27.348Z,1003.77
2018-01-20T13:07:49.515Z,1003.81
2018-01-20T13:09:11.759Z,1003.74
2018-01-20T13:10:34.017Z,1003.74
2018-01-20T13:11:56.161Z,1003.71
2018-01-20T13:13:18.293Z,1003.67
2018-01-20T13:14:40.432Z,1003.7
2018-01-20T13:16:02.416Z,1003.66
2018-01-20T13:17:24.022Z,1003.69
2018-01-20T13:18:45.938Z,1003.67
2018-01-20T13:20:08.182Z,1003.63
2018-01-20T13:21:29.543Z,1003.65
2018-01-20T13:22:51.524Z,1003.59
2018-01-20T13:24:13.410Z,1003.58
2018-01-20T13:25:35.565Z,1003.59
2018-01-20T13:26:57.552Z,1003.57
2018-01-20T13:28:19.732Z,1003.51
2018-01-20T13:29:41.960Z,1003.5
2018-01-20T13:31:04.072Z,1003.48
2018-01-20T13:32:26.223Z,1003.48
2018-01-20T13:33:48.692Z,1003.45
2018-01-20T13:35:10.686Z,1003.41
2018-01-20T13:36:32.351Z,1003.44
2018-01-20T13:37:53.953Z,1003.49
2018-01-20T13:39:16.386Z,1003.49
2018-01-20T13:40:38.091Z,1003.48
2018-01-20T13:41:59.746Z,1003.45
2018-01-20T13:43:21.375Z,1003.42
2018-01-20T13:44:43.359Z,1003.47
2018-01-20T13:46:04.993Z,1003.44
2018-01-20T13:47:26.866Z,1003.39
2018-01-20T13:48:48.749Z,1003.43
2018-01-20T13:50:10.672Z,1003.4
2018-01-20T13:51:32.948Z,1003.41
2018-01-20T13:52:55.142Z,1003.41
2018-01-20T13:54:17.007Z,1003.36
2018-01-20T13:55:38.915Z,1003.37
2018-01-20T13:57:00.772Z,1003.31
2018-01-20T13:58:22.904Z,1003.39
2018-01-20T13:59:44.802Z,1003.39
2018-01-20T14:01:06.774Z,1003.38
2018-01-20T14:02:28.641Z,1003.37
2018-01-20T14:03:50.250Z,1003.41
2018-01-20T14:05:11.869Z,1003.36
2018-01-20T14:06:33.742Z,1003.41
2018-01-20T14:07:55.655Z,1003.38
2018-01-20T14:09:17.535Z,1003.43
2018-01-20T14:10:39.379Z,1003.41
2018-01-20T14:12:01.392Z,1003.42
2018-01-20T14:13:23.562Z,1003.37
2018-01-20T14:14:45.452Z,1003.37
2018-01-20T14:16:07.595Z,1003.38
2018-01-20T14:17:29.565Z,1003.4
2018-01-20T14:18:51.729Z,1003.34
2018-01-20T14:20:13.483Z,1003.36
2018-01-20T14:21:35.641Z,1003.32
2018-01-20T14:22:57.501Z,1003.32
2018-01-20T14:24:19.122Z,1003.31
2018-01-20T14:25:41.389Z,1003.3
2018-01-20T14:27:03.416Z,1003.28
2018-01-20T14:28:25.379Z,1003.3
2018-01-20T14:29:47.261Z,1003.31
2018-01-20T14:31:09.551Z,1003.29
2018-01-20T14:32:31.464Z,1003.26
2018-01-20T14:33:53.592Z,1003.26
2018-01-20T14:35:15.594Z,1003.27
2018-01-20T14:36:37.561Z,1003.26
2018-01-20T14:37:59.263Z,1003.24
2018-01-20T14:39:21.473Z,1003.26
2018-01-20T14:40:43.629Z,1003.25
2018-01-20T14:42:05.759Z,1003.21
2018-01-20T14:43:27.945Z,1003.23
2018-01-20T14:44:49.852Z,1003.26
2018-01-20T14:46:11.772Z,1003.23
2018-01-20T14:47:33.924Z,1003.25
2018-01-20T14:48:55.805Z,1003.23
2018-01-20T14:50:17.983Z,1003.19
2018-01-20T14:51:39.853Z,1003.16
2018-01-20T14:53:02.013Z,1003.16
2018-01-20T14:54:23.920Z,1003.11
2018-01-20T14:55:45.818Z,1003.14
2018-01-20T14:57:07.708Z,1003.11
2018-01-20T14:58:30.221Z,1003.1
2018-01-20T14:59:52.494Z,1003.11
2018-01-20T15:01:14.956Z,1003.08
2018-01-20T15:02:36.923Z,1003.07
2018-01-20T15:03:58.344Z,1003.03
2018-01-20T15:05:20.125Z,1003.02
2018-01-20T15:06:41.743Z,1003.02
2018-01-20T15:08:03.639Z,1003.02
2018-01-20T15:09:25.499Z,1002.92
2018-01-20T15:10:47.353Z,1002.91
2018-01-20T15:12:09.246Z,1002.94
2018-01-20T15:13:30.963Z,1002.87
2018-01-20T15:14:52.341Z,1002.89
2018-01-20T15:16:14.219Z,1002.91
2018-01-20T15:17:35.559Z,1002.93
2018-01-20T15:18:57.431Z,1002.89
2018-01-20T15:20:19.312Z,1002.94
2018-01-20T15:21:41.892Z,1002.91
2018-01-20T15:23:03.927Z,1002.89
2018-01-20T15:24:26.115Z,1002.92
2018-01-20T15:25:48.262Z,1002.9
2018-01-20T15:27:10.189Z,1002.88
2018-01-20T15:28:31.920Z,1002.85
2018-01-20T15:29:54.092Z,1002.83
2018-01-20T15:31:16.105Z,1002.84
2018-01-20T15:32:38.200Z,1002.83
2018-01-20T15:34:00.163Z,1002.82
2018-01-20T15:35:21.838Z,1002.79
2018-01-20T15:36:44.033Z,1002.78
2018-01-20T15:38:06.004Z,1002.77
2018-01-20T15:39:28.023Z,1002.77
2018-01-20T15:40:49.654Z,1002.69
2018-01-20T15:42:11.821Z,1002.71
2018-01-20T15:43:33.974Z,1002.7
2018-01-20T15:44:56.449Z,1002.72
2018-01-20T15:46:18.605Z,1002.74
2018-01-20T15:47:40.600Z,1002.69
2018-01-20T15:49:02.251Z,1002.69
2018-01-20T15:50:24.457Z,1002.69
2018-01-20T15:51:46.166Z,1002.63
2018-01-20T15:53:08.093Z,1002.65
2018-01-20T15:54:29.701Z,1002.65
2018-01-20T15:55:51.800Z,1002.64
2018-01-20T15:57:13.953Z,1002.6
2018-01-20T15:58:36.186Z,1002.6
2018-01-20T15:59:58.344Z,1002.63
2018-01-20T16:01:20.500Z,1002.61
2018-01-20T16:02:42.256Z,1002.61
2018-01-20T16:04:04.453Z,1002.63
2018-01-20T16:05:26.431Z,1002.63
2018-01-20T16:06:48.923Z,1002.61
2018-01-20T16:08:10.545Z,1002.59
2018-01-20T16:09:32.452Z,1002.56
2018-01-20T16:10:54.633Z,1002.53
2018-01-20T16:12:16.832Z,1002.56
2018-01-20T16:13:38.632Z,1002.52
2018-01-20T16:15:00.671Z,1002.5
2018-01-20T16:16:22.334Z,1002.5
2018-01-20T16:17:44.551Z,1002.52
2018-01-20T16:19:06.512Z,1002.53
2018-01-20T16:20:28.804Z,1002.53
2018-01-20T16:21:50.882Z,1002.55
2018-01-20T16:23:12.506Z,1002.53
2018-01-20T16:24:34.685Z,1002.49
2018-01-20T16:25:56.907Z,1002.51
2018-01-20T16:27:18.802Z,1002.5
2018-01-20T16:28:40.684Z,1002.47
2018-01-20T16:30:02.575Z,1002.51
2018-01-20T16:31:24.593Z,1002.52
2018-01-20T16:32:46.746Z,1002.53